sensor_id;sensor_type;location;lat;lon;timestamp;P1;durP1;ratioP1;P2;durP2;ratioP2
75450;SDS011;64029;48.244;9.188;2023-04-25T00:00:26;4.90;;;3.10;;
75450;SDS011;64029;48.244;9.188;2023-04-25T00:02:53;6.43;;;2.90;;
75450;SDS011;64029;48.244;9.188;2023-04-25T00:05:21;4.13;;;2.80;;
75450;SDS011;64029;48.244;9.188;2023-04-25T00:07:48;4.37;;;2.80;;
75450;SDS011;64029;48.244;9.188;2023-04-25T00:10:15;6.40;;;4.10;;
75450;SDS011;64029;48.244;9.188;2023-04-25T00:12:43;4.23;;;3.40;;
75450;SDS011;64029;48.244;9.188;2023-04-25T00:15:11;3.57;;;3.07;;
75450;SDS011;64029;48.244;9.188;2023-04-25T00:17:38;3.93;;;2.83;;
75450;SDS011;64029;48.244;9.188;2023-04-25T00:20:05;3.60;;;3.23;;
75450;SDS011;64029;48.244;9.188;2023-04-25T00:22:34;4.00;;;3.40;;
75450;SDS011;64029;48.244;9.188;2023-04-25T00:25:02;4.07;;;2.87;;
75450;SDS011;64029;48.244;9.188;2023-04-25T00:27:30;3.60;;;3.03;;
75450;SDS011;64029;48.244;9.188;2023-04-25T00:29:58;5.73;;;3.20;;
75450;SDS011;64029;48.244;9.188;2023-04-25T00:32:26;4.27;;;3.00;;
75450;SDS011;64029;48.244;9.188;2023-04-25T00:34:52;3.10;;;2.80;;
75450;SDS011;64029;48.244;9.188;2023-04-25T00:37:20;5.70;;;3.80;;
75450;SDS011;64029;48.244;9.188;2023-04-25T00:39:47;3.17;;;2.87;;
75450;SDS011;64029;48.244;9.188;2023-04-25T00:42:14;3.37;;;3.07;;
75450;SDS011;64029;48.244;9.188;2023-04-25T00:44:42;4.00;;;3.33;;
75450;SDS011;64029;48.244;9.188;2023-04-25T00:47:10;4.20;;;3.10;;
75450;SDS011;64029;48.244;9.188;2023-04-25T00:49:37;4.60;;;3.40;;
75450;SDS011;64029;48.244;9.188;2023-04-25T00:52:04;5.23;;;3.10;;
75450;SDS011;64029;48.244;9.188;2023-04-25T00:54:32;4.90;;;3.30;;
75450;SDS011;64029;48.244;9.188;2023-04-25T00:56:58;4.37;;;3.10;;
75450;SDS011;64029;48.244;9.188;2023-04-25T00:59:26;3.30;;;2.70;;
75450;SDS011;64029;48.244;9.188;2023-04-25T01:01:54;5.43;;;3.10;;
75450;SDS011;64029;48.244;9.188;2023-04-25T01:04:23;4.30;;;2.87;;
75450;SDS011;64029;48.244;9.188;2023-04-25T01:06:50;5.77;;;3.10;;
75450;SDS011;64029;48.244;9.188;2023-04-25T01:09:17;3.93;;;3.53;;
75450;SDS011;64029;48.244;9.188;2023-04-25T01:11:45;3.57;;;2.90;;
75450;SDS011;64029;48.244;9.188;2023-04-25T01:14:12;4.10;;;3.07;;
75450;SDS011;64029;48.244;9.188;2023-04-25T01:16:39;4.03;;;3.50;;
75450;SDS011;64029;48.244;9.188;2023-04-25T01:19:06;4.50;;;3.03;;
75450;SDS011;64029;48.244;9.188;2023-04-25T01:21:38;3.50;;;3.20;;
75450;SDS011;64029;48.244;9.188;2023-04-25T01:24:05;5.10;;;3.00;;
75450;SDS011;64029;48.244;9.188;2023-04-25T01:26:33;4.33;;;3.17;;
75450;SDS011;64029;48.244;9.188;2023-04-25T01:29:01;4.37;;;3.03;;
75450;SDS011;64029;48.244;9.188;2023-04-25T01:31:30;4.20;;;2.83;;
75450;SDS011;64029;48.244;9.188;2023-04-25T01:33:58;5.10;;;2.80;;
75450;SDS011;64029;48.244;9.188;2023-04-25T01:36:25;3.80;;;3.07;;
75450;SDS011;64029;48.244;9.188;2023-04-25T01:38:55;7.30;;;3.17;;
75450;SDS011;64029;48.244;9.188;2023-04-25T01:41:23;8.20;;;3.37;;
75450;SDS011;64029;48.244;9.188;2023-04-25T01:43:50;3.37;;;2.60;;
75450;SDS011;64029;48.244;9.188;2023-04-25T01:46:17;3.50;;;3.20;;
75450;SDS011;64029;48.244;9.188;2023-04-25T01:48:44;7.83;;;3.30;;
75450;SDS011;64029;48.244;9.188;2023-04-25T01:51:11;5.80;;;2.90;;
75450;SDS011;64029;48.244;9.188;2023-04-25T01:53:38;4.53;;;2.97;;
75450;SDS011;64029;48.244;9.188;2023-04-25T01:56:07;5.50;;;3.00;;
75450;SDS011;64029;48.244;9.188;2023-04-25T01:58:34;3.70;;;3.00;;
75450;SDS011;64029;48.244;9.188;2023-04-25T02:01:00;3.50;;;3.00;;
75450;SDS011;64029;48.244;9.188;2023-04-25T02:03:29;7.53;;;3.23;;
75450;SDS011;64029;48.244;9.188;2023-04-25T02:05:57;2.83;;;2.63;;
75450;SDS011;64029;48.244;9.188;2023-04-25T02:08:24;3.30;;;3.00;;
75450;SDS011;64029;48.244;9.188;2023-04-25T02:10:51;3.20;;;2.90;;
75450;SDS011;64029;48.244;9.188;2023-04-25T02:13:19;4.37;;;3.70;;
75450;SDS011;64029;48.244;9.188;2023-04-25T02:15:46;3.37;;;2.63;;
75450;SDS011;64029;48.244;9.188;2023-04-25T02:18:16;4.30;;;2.87;;
75450;SDS011;64029;48.244;9.188;2023-04-25T02:20:43;5.10;;;3.20;;
75450;SDS011;64029;48.244;9.188;2023-04-25T02:23:10;3.63;;;3.27;;
75450;SDS011;64029;48.244;9.188;2023-04-25T02:25:37;5.33;;;3.10;;
75450;SDS011;64029;48.244;9.188;2023-04-25T02:28:04;7.33;;;3.90;;
75450;SDS011;64029;48.244;9.188;2023-04-25T02:30:32;6.27;;;3.57;;
75450;SDS011;64029;48.244;9.188;2023-04-25T02:33:00;4.10;;;2.87;;
75450;SDS011;64029;48.244;9.188;2023-04-25T02:35:27;4.70;;;3.70;;
75450;SDS011;64029;48.244;9.188;2023-04-25T02:37:53;3.70;;;3.40;;
75450;SDS011;64029;48.244;9.188;2023-04-25T02:40:20;6.93;;;3.20;;
75450;SDS011;64029;48.244;9.188;2023-04-25T02:42:47;5.17;;;3.90;;
75450;SDS011;64029;48.244;9.188;2023-04-25T02:45:14;4.27;;;3.50;;
75450;SDS011;64029;48.244;9.188;2023-04-25T02:47:42;4.40;;;3.20;;
75450;SDS011;64029;48.244;9.188;2023-04-25T02:50:09;3.73;;;3.40;;
75450;SDS011;64029;48.244;9.188;2023-04-25T02:52:36;4.47;;;3.30;;
75450;SDS011;64029;48.244;9.188;2023-04-25T02:55:03;3.80;;;3.03;;
75450;SDS011;64029;48.244;9.188;2023-04-25T02:57:30;3.50;;;3.20;;
75450;SDS011;64029;48.244;9.188;2023-04-25T02:59:57;4.60;;;3.53;;
75450;SDS011;64029;48.244;9.188;2023-04-25T03:02:24;3.63;;;2.87;;
75450;SDS011;64029;48.244;9.188;2023-04-25T03:04:52;7.60;;;3.10;;
75450;SDS011;64029;48.244;9.188;2023-04-25T03:07:19;4.40;;;3.73;;
75450;SDS011;64029;48.244;9.188;2023-04-25T03:09:46;6.17;;;3.30;;
75450;SDS011;64029;48.244;9.188;2023-04-25T03:12:12;4.37;;;3.47;;
75450;SDS011;64029;48.244;9.188;2023-04-25T03:14:39;3.90;;;3.50;;
75450;SDS011;64029;48.244;9.188;2023-04-25T03:17:06;4.60;;;3.53;;
75450;SDS011;64029;48.244;9.188;2023-04-25T03:19:33;4.43;;;2.90;;
75450;SDS011;64029;48.244;9.188;2023-04-25T03:22:01;6.10;;;3.90;;
75450;SDS011;64029;48.244;9.188;2023-04-25T03:24:28;5.77;;;3.27;;
75450;SDS011;64029;48.244;9.188;2023-04-25T03:26:55;3.80;;;3.00;;
75450;SDS011;64029;48.244;9.188;2023-04-25T03:29:21;4.37;;;3.37;;
75450;SDS011;64029;48.244;9.188;2023-04-25T03:31:51;3.33;;;3.03;;
75450;SDS011;64029;48.244;9.188;2023-04-25T03:34:18;7.57;;;3.33;;
75450;SDS011;64029;48.244;9.188;2023-04-25T03:36:46;3.30;;;3.00;;
75450;SDS011;64029;48.244;9.188;2023-04-25T03:39:14;8.20;;;3.40;;
75450;SDS011;64029;48.244;9.188;2023-04-25T03:41:41;5.40;;;3.23;;
75450;SDS011;64029;48.244;9.188;2023-04-25T03:44:08;4.03;;;3.10;;
75450;SDS011;64029;48.244;9.188;2023-04-25T03:46:35;5.77;;;3.27;;
75450;SDS011;64029;48.244;9.188;2023-04-25T03:49:01;8.40;;;3.60;;
75450;SDS011;64029;48.244;9.188;2023-04-25T03:51:28;4.63;;;3.20;;
75450;SDS011;64029;48.244;9.188;2023-04-25T03:53:56;5.10;;;2.97;;
75450;SDS011;64029;48.244;9.188;2023-04-25T03:56:24;6.33;;;3.10;;
75450;SDS011;64029;48.244;9.188;2023-04-25T03:58:51;5.60;;;2.97;;
75450;SDS011;64029;48.244;9.188;2023-04-25T04:01:17;5.83;;;3.50;;
75450;SDS011;64029;48.244;9.188;2023-04-25T04:03:44;3.57;;;3.27;;
75450;SDS011;64029;48.244;9.188;2023-04-25T04:06:11;4.37;;;3.53;;
75450;SDS011;64029;48.244;9.188;2023-04-25T04:08:38;4.97;;;4.57;;
75450;SDS011;64029;48.244;9.188;2023-04-25T04:11:05;4.80;;;3.57;;
75450;SDS011;64029;48.244;9.188;2023-04-25T04:13:33;3.93;;;3.00;;
75450;SDS011;64029;48.244;9.188;2023-04-25T04:16:00;3.77;;;3.20;;
75450;SDS011;64029;48.244;9.188;2023-04-25T04:18:26;4.10;;;3.70;;
75450;SDS011;64029;48.244;9.188;2023-04-25T04:20:53;5.17;;;3.60;;
75450;SDS011;64029;48.244;9.188;2023-04-25T04:23:20;4.17;;;3.37;;
75450;SDS011;64029;48.244;9.188;2023-04-25T04:25:47;5.03;;;3.60;;
75450;SDS011;64029;48.244;9.188;2023-04-25T04:28:14;5.50;;;3.20;;
75450;SDS011;64029;48.244;9.188;2023-04-25T04:30:44;6.57;;;3.23;;
75450;SDS011;64029;48.244;9.188;2023-04-25T04:33:12;4.30;;;3.00;;
75450;SDS011;64029;48.244;9.188;2023-04-25T04:35:40;3.33;;;3.00;;
75450;SDS011;64029;48.244;9.188;2023-04-25T04:38:07;5.53;;;3.30;;
75450;SDS011;64029;48.244;9.188;2023-04-25T04:40:35;4.10;;;3.53;;
75450;SDS011;64029;48.244;9.188;2023-04-25T04:43:02;5.33;;;2.90;;
75450;SDS011;64029;48.244;9.188;2023-04-25T04:45:29;8.00;;;3.70;;
75450;SDS011;64029;48.244;9.188;2023-04-25T04:47:57;4.00;;;3.50;;
75450;SDS011;64029;48.244;9.188;2023-04-25T04:50:24;4.73;;;3.53;;
75450;SDS011;64029;48.244;9.188;2023-04-25T04:52:52;3.90;;;3.40;;
75450;SDS011;64029;48.244;9.188;2023-04-25T04:55:20;3.63;;;3.33;;
75450;SDS011;64029;48.244;9.188;2023-04-25T04:57:47;3.73;;;3.43;;
75450;SDS011;64029;48.244;9.188;2023-04-25T05:00:14;4.60;;;3.70;;
75450;SDS011;64029;48.244;9.188;2023-04-25T05:02:41;8.20;;;4.60;;
75450;SDS011;64029;48.244;9.188;2023-04-25T05:05:09;11.23;;;6.30;;
75450;SDS011;64029;48.244;9.188;2023-04-25T05:07:36;7.10;;;5.30;;
75450;SDS011;64029;48.244;9.188;2023-04-25T05:10:03;6.37;;;5.20;;
75450;SDS011;64029;48.244;9.188;2023-04-25T05:12:31;6.07;;;4.53;;
75450;SDS011;64029;48.244;9.188;2023-04-25T05:14:58;8.57;;;4.83;;
75450;SDS011;64029;48.244;9.188;2023-04-25T05:17:25;6.97;;;4.40;;
75450;SDS011;64029;48.244;9.188;2023-04-25T05:19:52;6.60;;;4.80;;
75450;SDS011;64029;48.244;9.188;2023-04-25T05:22:20;4.87;;;4.10;;
75450;SDS011;64029;48.244;9.188;2023-04-25T05:24:47;5.63;;;3.83;;
75450;SDS011;64029;48.244;9.188;2023-04-25T05:27:15;4.80;;;4.23;;
75450;SDS011;64029;48.244;9.188;2023-04-25T05:29:42;7.53;;;4.80;;
75450;SDS011;64029;48.244;9.188;2023-04-25T05:32:09;5.67;;;4.10;;
75450;SDS011;64029;48.244;9.188;2023-04-25T05:34:36;6.40;;;3.23;;
75450;SDS011;64029;48.244;9.188;2023-04-25T05:37:03;7.93;;;6.20;;
75450;SDS011;64029;48.244;9.188;2023-04-25T05:39:31;12.00;;;7.00;;
75450;SDS011;64029;48.244;9.188;2023-04-25T05:41:58;9.20;;;5.03;;
75450;SDS011;64029;48.244;9.188;2023-04-25T05:44:26;6.43;;;4.70;;
75450;SDS011;64029;48.244;9.188;2023-04-25T05:46:53;4.83;;;4.30;;
75450;SDS011;64029;48.244;9.188;2023-04-25T05:49:20;4.47;;;3.80;;
75450;SDS011;64029;48.244;9.188;2023-04-25T05:51:47;4.33;;;3.93;;
75450;SDS011;64029;48.244;9.188;2023-04-25T05:54:14;6.70;;;4.80;;
75450;SDS011;64029;48.244;9.188;2023-04-25T05:56:42;7.33;;;4.20;;
75450;SDS011;64029;48.244;9.188;2023-04-25T05:59:11;7.30;;;4.30;;
75450;SDS011;64029;48.244;9.188;2023-04-25T06:01:38;5.60;;;3.80;;
75450;SDS011;64029;48.244;9.188;2023-04-25T06:04:05;5.00;;;4.13;;
75450;SDS011;64029;48.244;9.188;2023-04-25T06:06:32;5.13;;;4.13;;
75450;SDS011;64029;48.244;9.188;2023-04-25T06:08:58;7.80;;;3.93;;
75450;SDS011;64029;48.244;9.188;2023-04-25T06:11:25;4.63;;;4.23;;
75450;SDS011;64029;48.244;9.188;2023-04-25T06:13:54;5.83;;;3.80;;
75450;SDS011;64029;48.244;9.188;2023-04-25T06:16:20;5.13;;;3.87;;
75450;SDS011;64029;48.244;9.188;2023-04-25T06:18:47;5.73;;;3.73;;
75450;SDS011;64029;48.244;9.188;2023-04-25T06:21:14;5.33;;;4.30;;
75450;SDS011;64029;48.244;9.188;2023-04-25T06:23:41;6.57;;;3.70;;
75450;SDS011;64029;48.244;9.188;2023-04-25T06:26:08;5.60;;;3.50;;
75450;SDS011;64029;48.244;9.188;2023-04-25T06:28:34;4.33;;;3.77;;
75450;SDS011;64029;48.244;9.188;2023-04-25T06:31:03;6.00;;;3.80;;
75450;SDS011;64029;48.244;9.188;2023-04-25T06:33:29;6.43;;;4.87;;
75450;SDS011;64029;48.244;9.188;2023-04-25T06:35:56;6.00;;;3.60;;
75450;SDS011;64029;48.244;9.188;2023-04-25T06:38:23;3.80;;;3.50;;
75450;SDS011;64029;48.244;9.188;2023-04-25T06:40:50;6.87;;;4.60;;
75450;SDS011;64029;48.244;9.188;2023-04-25T06:43:17;8.87;;;4.20;;
75450;SDS011;64029;48.244;9.188;2023-04-25T06:45:44;4.70;;;3.73;;
75450;SDS011;64029;48.244;9.188;2023-04-25T06:48:12;4.77;;;4.20;;
75450;SDS011;64029;48.244;9.188;2023-04-25T06:50:39;7.50;;;4.00;;
75450;SDS011;64029;48.244;9.188;2023-04-25T06:53:06;5.27;;;4.77;;
75450;SDS011;64029;48.244;9.188;2023-04-25T06:55:33;4.93;;;3.80;;
75450;SDS011;64029;48.244;9.188;2023-04-25T06:58:00;4.73;;;4.30;;
75450;SDS011;64029;48.244;9.188;2023-04-25T07:00:28;4.33;;;3.60;;
75450;SDS011;64029;48.244;9.188;2023-04-25T07:02:55;5.77;;;4.23;;
75450;SDS011;64029;48.244;9.188;2023-04-25T07:05:23;9.90;;;4.00;;
75450;SDS011;64029;48.244;9.188;2023-04-25T07:07:50;4.33;;;3.70;;
75450;SDS011;64029;48.244;9.188;2023-04-25T07:10:17;7.67;;;4.37;;
75450;SDS011;64029;48.244;9.188;2023-04-25T07:12:44;7.90;;;4.70;;
75450;SDS011;64029;48.244;9.188;2023-04-25T07:15:10;6.30;;;4.13;;
75450;SDS011;64029;48.244;9.188;2023-04-25T07:17:37;5.27;;;3.97;;
75450;SDS011;64029;48.244;9.188;2023-04-25T07:20:05;5.20;;;3.33;;
75450;SDS011;64029;48.244;9.188;2023-04-25T07:22:35;6.23;;;3.90;;
75450;SDS011;64029;48.244;9.188;2023-04-25T07:25:02;5.63;;;3.70;;
75450;SDS011;64029;48.244;9.188;2023-04-25T07:27:29;4.63;;;3.80;;
75450;SDS011;64029;48.244;9.188;2023-04-25T07:29:56;6.80;;;3.80;;
75450;SDS011;64029;48.244;9.188;2023-04-25T07:32:23;10.17;;;4.03;;
75450;SDS011;64029;48.244;9.188;2023-04-25T07:34:50;6.60;;;4.77;;
75450;SDS011;64029;48.244;9.188;2023-04-25T07:37:16;5.03;;;4.20;;
75450;SDS011;64029;48.244;9.188;2023-04-25T07:39:45;4.20;;;3.77;;
75450;SDS011;64029;48.244;9.188;2023-04-25T07:42:12;4.67;;;4.17;;
75450;SDS011;64029;48.244;9.188;2023-04-25T07:44:39;5.53;;;3.83;;
75450;SDS011;64029;48.244;9.188;2023-04-25T07:47:07;6.20;;;4.50;;
75450;SDS011;64029;48.244;9.188;2023-04-25T07:49:35;6.47;;;3.60;;
75450;SDS011;64029;48.244;9.188;2023-04-25T07:52:02;3.83;;;3.40;;
75450;SDS011;64029;48.244;9.188;2023-04-25T07:54:31;4.57;;;4.10;;
75450;SDS011;64029;48.244;9.188;2023-04-25T07:56:59;5.87;;;4.83;;
75450;SDS011;64029;48.244;9.188;2023-04-25T07:59:27;6.10;;;4.23;;
75450;SDS011;64029;48.244;9.188;2023-04-25T08:01:54;5.03;;;4.53;;
75450;SDS011;64029;48.244;9.188;2023-04-25T08:04:22;6.63;;;4.70;;
75450;SDS011;64029;48.244;9.188;2023-04-25T08:06:50;4.87;;;3.90;;
75450;SDS011;64029;48.244;9.188;2023-04-25T08:09:17;5.30;;;4.40;;
75450;SDS011;64029;48.244;9.188;2023-04-25T08:11:44;5.13;;;4.33;;
75450;SDS011;64029;48.244;9.188;2023-04-25T08:14:13;8.00;;;4.10;;
75450;SDS011;64029;48.244;9.188;2023-04-25T08:16:39;8.33;;;4.93;;
75450;SDS011;64029;48.244;9.188;2023-04-25T08:19:07;5.87;;;3.87;;
75450;SDS011;64029;48.244;9.188;2023-04-25T08:21:33;7.83;;;3.90;;
75450;SDS011;64029;48.244;9.188;2023-04-25T08:24:00;6.03;;;4.30;;
75450;SDS011;64029;48.244;9.188;2023-04-25T08:26:27;5.23;;;3.90;;
75450;SDS011;64029;48.244;9.188;2023-04-25T08:28:55;5.73;;;3.80;;
75450;SDS011;64029;48.244;9.188;2023-04-25T08:31:23;7.40;;;3.40;;
75450;SDS011;64029;48.244;9.188;2023-04-25T08:33:51;4.20;;;3.43;;
75450;SDS011;64029;48.244;9.188;2023-04-25T08:36:18;4.70;;;3.23;;
75450;SDS011;64029;48.244;9.188;2023-04-25T08:38:45;3.27;;;2.90;;
75450;SDS011;64029;48.244;9.188;2023-04-25T08:41:15;7.10;;;2.87;;
75450;SDS011;64029;48.244;9.188;2023-04-25T08:43:43;4.40;;;3.50;;
75450;SDS011;64029;48.244;9.188;2023-04-25T08:46:12;8.77;;;3.80;;
75450;SDS011;64029;48.244;9.188;2023-04-25T08:48:43;6.00;;;3.23;;
75450;SDS011;64029;48.244;9.188;2023-04-25T08:51:13;3.97;;;2.63;;
75450;SDS011;64029;48.244;9.188;2023-04-25T08:53:47;3.53;;;3.00;;
75450;SDS011;64029;48.244;9.188;2023-04-25T08:56:16;3.53;;;3.23;;
75450;SDS011;64029;48.244;9.188;2023-04-25T08:58:45;5.87;;;3.67;;
75450;SDS011;64029;48.244;9.188;2023-04-25T09:01:14;7.43;;;2.93;;
75450;SDS011;64029;48.244;9.188;2023-04-25T09:03:43;7.70;;;2.90;;
75450;SDS011;64029;48.244;9.188;2023-04-25T09:06:10;3.60;;;3.00;;
75450;SDS011;64029;48.244;9.188;2023-04-25T09:08:37;5.30;;;3.00;;
75450;SDS011;64029;48.244;9.188;2023-04-25T09:11:05;4.30;;;3.83;;
75450;SDS011;64029;48.244;9.188;2023-04-25T09:13:33;5.70;;;4.13;;
75450;SDS011;64029;48.244;9.188;2023-04-25T09:15:59;5.40;;;4.47;;
75450;SDS011;64029;48.244;9.188;2023-04-25T09:18:27;4.73;;;3.17;;
75450;SDS011;64029;48.244;9.188;2023-04-25T09:20:56;4.47;;;2.90;;
75450;SDS011;64029;48.244;9.188;2023-04-25T09:23:30;3.67;;;2.30;;
75450;SDS011;64029;48.244;9.188;2023-04-25T09:26:06;2.43;;;2.20;;
75450;SDS011;64029;48.244;9.188;2023-04-25T09:28:33;2.03;;;1.50;;
75450;SDS011;64029;48.244;9.188;2023-04-25T09:31:02;2.43;;;1.60;;
75450;SDS011;64029;48.244;9.188;2023-04-25T09:33:30;2.10;;;1.90;;
75450;SDS011;64029;48.244;9.188;2023-04-25T09:36:03;2.00;;;1.77;;
75450;SDS011;64029;48.244;9.188;2023-04-25T09:38:31;3.10;;;1.63;;
75450;SDS011;64029;48.244;9.188;2023-04-25T09:41:05;3.27;;;1.80;;
75450;SDS011;64029;48.244;9.188;2023-04-25T09:43:32;2.83;;;1.43;;
75450;SDS011;64029;48.244;9.188;2023-04-25T09:46:00;2.60;;;1.77;;
75450;SDS011;64029;48.244;9.188;2023-04-25T09:48:27;1.60;;;1.50;;
75450;SDS011;64029;48.244;9.188;2023-04-25T09:51:05;1.50;;;1.40;;
75450;SDS011;64029;48.244;9.188;2023-04-25T09:53:33;1.27;;;1.00;;
75450;SDS011;64029;48.244;9.188;2023-04-25T09:56:01;1.43;;;1.10;;
75450;SDS011;64029;48.244;9.188;2023-04-25T09:58:31;1.00;;;0.87;;
75450;SDS011;64029;48.244;9.188;2023-04-25T10:00:59;1.00;;;0.90;;
75450;SDS011;64029;48.244;9.188;2023-04-25T10:03:27;0.90;;;0.80;;
75450;SDS011;64029;48.244;9.188;2023-04-25T10:05:57;0.87;;;0.77;;
75450;SDS011;64029;48.244;9.188;2023-04-25T10:08:27;1.10;;;0.90;;
75450;SDS011;64029;48.244;9.188;2023-04-25T10:10:58;0.97;;;0.90;;
75450;SDS011;64029;48.244;9.188;2023-04-25T10:13:26;1.30;;;1.00;;
75450;SDS011;64029;48.244;9.188;2023-04-25T10:15:54;2.00;;;1.57;;
75450;SDS011;64029;48.244;9.188;2023-04-25T10:18:23;2.83;;;2.00;;
75450;SDS011;64029;48.244;9.188;2023-04-25T10:20:51;3.00;;;2.00;;
75450;SDS011;64029;48.244;9.188;2023-04-25T10:23:19;1.93;;;1.43;;
75450;SDS011;64029;48.244;9.188;2023-04-25T10:25:48;1.27;;;1.17;;
75450;SDS011;64029;48.244;9.188;2023-04-25T10:28:16;1.10;;;1.00;;
75450;SDS011;64029;48.244;9.188;2023-04-25T10:30:56;2.13;;;1.20;;
75450;SDS011;64029;48.244;9.188;2023-04-25T10:33:29;1.40;;;1.10;;
75450;SDS011;64029;48.244;9.188;2023-04-25T10:35:58;1.17;;;0.80;;
75450;SDS011;64029;48.244;9.188;2023-04-25T10:38:34;1.00;;;0.90;;
75450;SDS011;64029;48.244;9.188;2023-04-25T10:41:04;1.03;;;0.93;;
75450;SDS011;64029;48.244;9.188;2023-04-25T10:43:34;1.10;;;0.90;;
75450;SDS011;64029;48.244;9.188;2023-04-25T10:46:03;2.30;;;1.30;;
75450;SDS011;64029;48.244;9.188;2023-04-25T10:48:43;1.80;;;1.50;;
75450;SDS011;64029;48.244;9.188;2023-04-25T10:51:15;1.63;;;1.40;;
75450;SDS011;64029;48.244;9.188;2023-04-25T10:53:44;2.17;;;1.07;;
75450;SDS011;64029;48.244;9.188;2023-04-25T10:56:12;2.53;;;1.30;;
75450;SDS011;64029;48.244;9.188;2023-04-25T10:58:44;3.70;;;1.30;;
75450;SDS011;64029;48.244;9.188;2023-04-25T11:01:11;1.67;;;1.40;;
75450;SDS011;64029;48.244;9.188;2023-04-25T11:03:42;2.20;;;2.00;;
75450;SDS011;64029;48.244;9.188;2023-04-25T11:06:15;1.80;;;1.23;;
75450;SDS011;64029;48.244;9.188;2023-04-25T11:08:49;2.07;;;1.30;;
75450;SDS011;64029;48.244;9.188;2023-04-25T11:11:18;1.07;;;0.90;;
75450;SDS011;64029;48.244;9.188;2023-04-25T11:13:47;1.10;;;0.70;;
75450;SDS011;64029;48.244;9.188;2023-04-25T11:16:15;1.10;;;0.90;;
75450;SDS011;64029;48.244;9.188;2023-04-25T11:18:42;1.50;;;0.83;;
75450;SDS011;64029;48.244;9.188;2023-04-25T11:21:10;0.87;;;0.80;;
75450;SDS011;64029;48.244;9.188;2023-04-25T11:23:37;1.13;;;0.80;;
75450;SDS011;64029;48.244;9.188;2023-04-25T11:26:04;1.27;;;0.73;;
75450;SDS011;64029;48.244;9.188;2023-04-25T11:28:33;0.90;;;0.67;;
75450;SDS011;64029;48.244;9.188;2023-04-25T11:31:00;1.30;;;1.00;;
75450;SDS011;64029;48.244;9.188;2023-04-25T11:33:30;3.40;;;1.90;;
75450;SDS011;64029;48.244;9.188;2023-04-25T11:35:56;3.57;;;1.20;;
75450;SDS011;64029;48.244;9.188;2023-04-25T11:38:24;1.83;;;1.50;;
75450;SDS011;64029;48.244;9.188;2023-04-25T11:40:51;1.57;;;1.07;;
75450;SDS011;64029;48.244;9.188;2023-04-25T11:43:20;1.20;;;1.10;;
75450;SDS011;64029;48.244;9.188;2023-04-25T11:45:49;3.20;;;2.20;;
75450;SDS011;64029;48.244;9.188;2023-04-25T11:48:17;1.93;;;1.50;;
75450;SDS011;64029;48.244;9.188;2023-04-25T11:50:45;1.83;;;1.30;;
75450;SDS011;64029;48.244;9.188;2023-04-25T11:53:12;4.50;;;2.20;;
75450;SDS011;64029;48.244;9.188;2023-04-25T11:55:38;2.27;;;2.07;;
75450;SDS011;64029;48.244;9.188;2023-04-25T11:58:06;1.77;;;1.27;;
75450;SDS011;64029;48.244;9.188;2023-04-25T12:00:33;1.43;;;1.10;;
75450;SDS011;64029;48.244;9.188;2023-04-25T12:03:02;2.53;;;1.00;;
75450;SDS011;64029;48.244;9.188;2023-04-25T12:05:30;1.07;;;0.97;;
75450;SDS011;64029;48.244;9.188;2023-04-25T12:07:58;2.50;;;1.07;;
75450;SDS011;64029;48.244;9.188;2023-04-25T12:10:37;1.23;;;1.13;;
75450;SDS011;64029;48.244;9.188;2023-04-25T12:13:17;1.13;;;1.03;;
75450;SDS011;64029;48.244;9.188;2023-04-25T12:15:45;1.10;;;1.00;;
75450;SDS011;64029;48.244;9.188;2023-04-25T12:18:13;1.77;;;0.70;;
75450;SDS011;64029;48.244;9.188;2023-04-25T12:20:41;0.70;;;0.70;;
75450;SDS011;64029;48.244;9.188;2023-04-25T12:23:08;1.57;;;1.47;;
75450;SDS011;64029;48.244;9.188;2023-04-25T12:25:38;1.87;;;1.23;;
75450;SDS011;64029;48.244;9.188;2023-04-25T12:28:13;1.63;;;1.17;;
75450;SDS011;64029;48.244;9.188;2023-04-25T12:30:53;1.73;;;1.17;;
75450;SDS011;64029;48.244;9.188;2023-04-25T12:33:22;1.43;;;1.00;;
75450;SDS011;64029;48.244;9.188;2023-04-25T12:35:49;1.50;;;1.00;;
75450;SDS011;64029;48.244;9.188;2023-04-25T12:38:23;1.00;;;0.90;;
75450;SDS011;64029;48.244;9.188;2023-04-25T12:40:51;0.70;;;0.60;;
75450;SDS011;64029;48.244;9.188;2023-04-25T12:43:18;0.90;;;0.80;;
75450;SDS011;64029;48.244;9.188;2023-04-25T12:45:47;1.30;;;0.90;;
75450;SDS011;64029;48.244;9.188;2023-04-25T12:48:14;1.57;;;1.20;;
75450;SDS011;64029;48.244;9.188;2023-04-25T12:50:42;1.67;;;1.30;;
75450;SDS011;64029;48.244;9.188;2023-04-25T12:56:23;0.70;;;0.70;;
75450;SDS011;64029;48.244;9.188;2023-04-25T12:58:52;1.17;;;0.90;;
75450;SDS011;64029;48.244;9.188;2023-04-25T13:01:21;1.03;;;0.77;;
75450;SDS011;64029;48.244;9.188;2023-04-25T13:04:00;1.10;;;1.00;;
75450;SDS011;64029;48.244;9.188;2023-04-25T13:06:28;1.07;;;0.97;;
75450;SDS011;64029;48.244;9.188;2023-04-25T13:08:56;1.20;;;1.10;;
75450;SDS011;64029;48.244;9.188;2023-04-25T13:11:24;0.90;;;0.87;;
75450;SDS011;64029;48.244;9.188;2023-04-25T13:13:51;1.60;;;1.07;;
75450;SDS011;64029;48.244;9.188;2023-04-25T13:16:18;1.47;;;1.10;;
75450;SDS011;64029;48.244;9.188;2023-04-25T13:18:48;1.60;;;1.40;;
75450;SDS011;64029;48.244;9.188;2023-04-25T13:21:15;1.17;;;1.07;;
75450;SDS011;64029;48.244;9.188;2023-04-25T13:23:43;1.23;;;1.13;;
75450;SDS011;64029;48.244;9.188;2023-04-25T13:26:12;2.13;;;1.47;;
75450;SDS011;64029;48.244;9.188;2023-04-25T13:28:39;1.40;;;1.30;;
75450;SDS011;64029;48.244;9.188;2023-04-25T13:31:06;1.40;;;1.30;;
75450;SDS011;64029;48.244;9.188;2023-04-25T13:33:33;1.20;;;1.10;;
75450;SDS011;64029;48.244;9.188;2023-04-25T13:36:00;1.20;;;1.10;;
75450;SDS011;64029;48.244;9.188;2023-04-25T13:38:27;2.33;;;1.20;;
75450;SDS011;64029;48.244;9.188;2023-04-25T13:40:57;1.30;;;1.20;;
75450;SDS011;64029;48.244;9.188;2023-04-25T13:43:23;1.87;;;1.63;;
75450;SDS011;64029;48.244;9.188;2023-04-25T13:45:50;2.17;;;1.40;;
75450;SDS011;64029;48.244;9.188;2023-04-25T13:48:17;2.90;;;1.50;;
75450;SDS011;64029;48.244;9.188;2023-04-25T13:50:45;1.20;;;1.10;;
75450;SDS011;64029;48.244;9.188;2023-04-25T13:53:12;1.57;;;1.33;;
75450;SDS011;64029;48.244;9.188;2023-04-25T13:55:39;1.53;;;1.43;;
75450;SDS011;64029;48.244;9.188;2023-04-25T13:58:12;1.27;;;1.17;;
75450;SDS011;64029;48.244;9.188;2023-04-25T14:00:39;1.20;;;1.13;;
75450;SDS011;64029;48.244;9.188;2023-04-25T14:03:08;1.43;;;1.33;;
75450;SDS011;64029;48.244;9.188;2023-04-25T14:05:37;1.33;;;1.23;;
75450;SDS011;64029;48.244;9.188;2023-04-25T14:08:06;1.50;;;1.40;;
75450;SDS011;64029;48.244;9.188;2023-04-25T14:10:34;2.10;;;1.90;;
75450;SDS011;64029;48.244;9.188;2023-04-25T14:13:01;1.70;;;1.60;;
75450;SDS011;64029;48.244;9.188;2023-04-25T14:15:30;1.70;;;1.40;;
75450;SDS011;64029;48.244;9.188;2023-04-25T14:17:57;1.47;;;1.37;;
75450;SDS011;64029;48.244;9.188;2023-04-25T14:20:25;2.30;;;1.20;;
75450;SDS011;64029;48.244;9.188;2023-04-25T14:22:54;1.40;;;1.30;;
75450;SDS011;64029;48.244;9.188;2023-04-25T14:25:21;2.60;;;1.27;;
75450;SDS011;64029;48.244;9.188;2023-04-25T14:27:48;1.30;;;1.20;;
75450;SDS011;64029;48.244;9.188;2023-04-25T14:30:15;1.20;;;1.10;;
75450;SDS011;64029;48.244;9.188;2023-04-25T14:32:44;1.80;;;1.70;;
75450;SDS011;64029;48.244;9.188;2023-04-25T14:35:11;4.53;;;2.47;;
75450;SDS011;64029;48.244;9.188;2023-04-25T14:37:38;3.50;;;2.07;;
75450;SDS011;64029;48.244;9.188;2023-04-25T14:40:05;3.53;;;3.00;;
75450;SDS011;64029;48.244;9.188;2023-04-25T14:42:35;2.13;;;1.93;;
75450;SDS011;64029;48.244;9.188;2023-04-25T14:45:02;2.67;;;2.30;;
75450;SDS011;64029;48.244;9.188;2023-04-25T14:47:29;1.63;;;1.53;;
75450;SDS011;64029;48.244;9.188;2023-04-25T14:49:58;1.70;;;1.60;;
75450;SDS011;64029;48.244;9.188;2023-04-25T14:52:24;3.60;;;2.47;;
75450;SDS011;64029;48.244;9.188;2023-04-25T14:54:51;3.23;;;2.93;;